Time;durP1;ratioP1;P1;durP2;ratioP2;P2;SDS_P1;SDS_P2;PMS_P1;PMS_P2;Temp;Humidity;BMP_temperature;BMP_pressure;BME280_temperature;BME280_humidity;BME280_pressure;Samples;Min_cycle;Max_cycle;Signal;HPM_P1;HPM_P2
2023/07/08 00:01:55;;;;;;;7.10;3.90;;;;;;;15.27;65.63;101282.67;106109;1256;98096;-78
2023/07/08 00:04:42;;;;;;;5.70;4.30;;;;;;;15.25;65.64;101284.52;106078;1257;102057;-78
2023/07/08 00:07:27;;;;;;;7.20;4.30;;;;;;;15.25;65.73;101282.25;106215;1257;99063;-78
2023/07/08 00:10:15;;;;;;;5.20;4.10;;;;;;;15.26;65.98;101283.26;106105;1256;97839;-78
2023/07/08 00:13:01;;;;;;;9.30;3.80;;;;;;;15.25;66.36;101278.80;106076;1258;97945;-78
2023/07/08 00:15:46;;;;;;;8.80;4.10;;;;;;;15.20;66.27;101278.48;105948;1254;98452;-77
2023/07/08 00:18:32;;;;;;;5.30;4.10;;;;;;;15.12;66.30;101278.98;105649;1258;103249;-76
2023/07/08 00:21:19;;;;;;;5.70;4.20;;;;;;;15.06;66.30;101280.33;105558;1253;100451;-77
2023/07/08 00:24:05;;;;;;;6.60;4.50;;;;;;;15.08;66.59;101279.91;105550;1255;98963;-78
2023/07/08 00:26:50;;;;;;;7.60;4.70;;;;;;;15.09;66.72;101280.70;106006;1258;97769;-78
2023/07/08 00:29:35;;;;;;;6.10;4.80;;;;;;;15.05;66.84;101284.36;106113;1258;97842;-77
2023/07/08 00:32:23;;;;;;;7.30;4.50;;;;;;;14.99;66.72;101282.73;105462;1253;101353;-78
2023/07/08 00:35:09;;;;;;;8.80;4.60;;;;;;;14.92;66.52;101283.90;105654;1258;99645;-77
2023/07/08 00:38:01;;;;;;;6.90;4.90;;;;;;;14.90;66.77;101288.79;105587;1256;98984;-77
2023/07/08 00:41:12;;;;;;;7.40;5.10;;;;;;;14.88;66.82;101290.92;105524;1256;98369;-77
2023/07/08 00:43:59;;;;;;;6.10;4.80;;;;;;;14.82;66.80;101293.34;106022;1256;98505;-78
2023/07/08 00:47:03;;;;;;;8.30;4.40;;;;;;;14.68;66.84;101291.54;105846;1257;102717;-77
2023/07/08 00:50:03;;;;;;;7.60;4.40;;;;;;;14.57;66.86;101286.89;105498;1254;100439;-78
2023/07/08 00:52:49;;;;;;;5.20;4.40;;;;;;;14.52;67.01;101286.23;105531;1257;98989;-77
2023/07/08 00:55:34;;;;;;;6.60;4.30;;;;;;;14.50;67.25;101283.97;105333;1258;97870;-76
2023/07/08 00:58:22;;;;;;;6.70;5.00;;;;;;;14.44;67.34;101286.45;105451;1256;98482;-77
2023/07/08 01:01:10;;;;;;;8.90;4.60;;;;;;;14.40;67.57;101286.91;106094;1256;101321;-78
2023/07/08 01:04:01;;;;;;;6.10;4.60;;;;;;;14.33;67.67;101284.75;106061;1258;99052;-78
2023/07/08 01:06:56;;;;;;;7.00;4.90;;;;;;;14.31;67.72;101290.33;106164;1255;97962;-78
2023/07/08 01:09:45;;;;;;;7.00;4.50;;;;;;;14.30;67.80;101290.15;106060;1255;97885;-79
2023/07/08 01:12:35;;;;;;;5.20;4.50;;;;;;;14.23;67.81;101287.83;106116;1258;98482;-78
2023/07/08 01:15:26;;;;;;;9.50;5.30;;;;;;;14.15;68.02;101287.62;106185;1256;102588;-78
2023/07/08 01:18:16;;;;;;;9.10;5.00;;;;;;;14.09;68.24;101288.15;106230;1260;100309;-78
2023/07/08 01:21:06;;;;;;;7.30;4.50;;;;;;;14.06;68.51;101289.02;106151;1256;99123;-78
2023/07/08 01:23:52;;;;;;;6.20;4.70;;;;;;;14.02;68.52;101287.70;106140;1256;97872;-77
2023/07/08 01:26:42;;;;;;;6.40;4.60;;;;;;;13.95;68.44;101288.88;106179;1254;97955;-77
2023/07/08 01:29:27;;;;;;;6.70;4.30;;;;;;;13.91;68.56;101290.45;106084;1254;102564;-77
2023/07/08 01:32:17;;;;;;;5.00;4.50;;;;;;;13.86;68.74;101294.50;106225;1256;100321;-78
2023/07/08 01:35:04;;;;;;;4.70;4.20;;;;;;;13.82;68.79;101297.66;106165;1258;98377;-78
2023/07/08 01:37:57;;;;;;;8.30;4.20;;;;;;;13.79;68.66;101291.44;106100;1258;99202;-77
2023/07/08 01:56:09;;;;;;;6.10;4.80;;;;;;;13.42;69.66;101281.54;102248;1295;636336;-76
2023/07/08 01:58:55;;;;;;;6.80;4.70;;;;;;;13.32;69.93;101279.38;104868;1267;95950;-78
2023/07/08 02:01:40;;;;;;;5.80;4.90;;;;;;;13.27;70.10;101276.32;105030;1267;95986;-77
2023/07/08 02:04:26;;;;;;;7.50;5.60;;;;;;;13.26;70.19;101272.80;105123;1268;98598;-78
2023/07/08 02:07:12;;;;;;;9.70;5.40;;;;;;;13.25;70.30;101271.80;105135;1271;99078;-77
2023/07/08 02:09:57;;;;;;;9.50;5.80;;;;;;;13.23;70.56;101274.66;105060;1268;243034;-78
2023/07/08 02:12:43;;;;;;;5.80;5.20;;;;;;;13.24;70.58;101269.98;105406;1264;95849;-77
2023/07/08 02:15:28;;;;;;;8.40;5.90;;;;;;;13.24;70.60;101271.98;105259;1268;95895;-78
2023/07/08 02:18:14;;;;;;;12.00;6.50;;;;;;;13.22;70.61;101271.52;105279;1271;98554;-78
2023/07/08 02:21:01;;;;;;;13.00;7.30;;;;;;;13.23;70.90;101272.64;105355;1270;99103;-78
2023/07/08 02:23:49;;;;;;;10.70;6.70;;;;;;;13.24;71.22;101270.41;105335;1270;99564;-78
2023/07/08 02:26:35;;;;;;;10.80;6.20;;;;;;;13.20;71.09;101266.77;105262;1265;96805;-78
2023/07/08 02:29:21;;;;;;;8.20;6.00;;;;;;;13.17;71.17;101266.36;105362;1268;95890;-79
2023/07/08 02:32:09;;;;;;;8.30;6.50;;;;;;;13.16;71.20;101267.28;106064;1261;98661;-78
2023/07/08 02:34:55;;;;;;;8.50;6.30;;;;;;;13.15;71.21;101267.41;105873;1260;100377;-78
2023/07/08 02:37:40;;;;;;;8.10;5.60;;;;;;;13.18;71.11;101265.34;105947;1257;98566;-78
2023/07/08 02:40:26;;;;;;;8.70;4.90;;;;;;;13.23;71.31;101265.55;105988;1273;95826;-79
2023/07/08 02:43:13;;;;;;;7.50;5.80;;;;;;;13.25;71.08;101270.67;105965;1260;96956;-79
2023/07/08 02:45:59;;;;;;;6.70;5.20;;;;;;;13.28;71.41;101272.02;105753;1258;99369;-78
2023/07/08 02:48:45;;;;;;;9.70;5.70;;;;;;;13.31;71.42;101270.45;105876;1264;99207;-78
2023/07/08 02:51:31;;;;;;;6.50;5.10;;;;;;;13.31;71.40;101272.54;105502;1264;98854;-77
2023/07/08 02:54:16;;;;;;;10.70;6.30;;;;;;;13.29;71.45;101271.05;105295;1262;96004;-78
2023/07/08 02:57:01;;;;;;;6.50;5.80;;;;;;;13.27;71.46;101273.59;105406;1261;95820;-78
2023/07/08 02:59:47;;;;;;;6.30;5.70;;;;;;;13.25;71.51;101269.05;105482;1270;99909;-77
2023/07/08 03:02:33;;;;;;;8.70;5.70;;;;;;;13.20;71.26;101269.63;105368;1260;99072;-78
2023/07/08 03:05:19;;;;;;;10.50;5.60;;;;;;;13.16;71.65;101270.64;105162;1260;97521;-77
2023/07/08 03:08:04;;;;;;;8.30;5.90;;;;;;;13.16;71.95;101273.20;105390;1262;96204;-77
2023/07/08 03:10:56;;;;;;;7.30;6.10;;;;;;;13.15;71.90;101274.73;105421;1262;96010;-77
2023/07/08 03:13:42;;;;;;;11.40;6.00;;;;;;;13.14;72.09;101272.08;105445;1263;99619;-78
2023/07/08 03:16:28;;;;;;;10.10;6.10;;;;;;;13.17;71.99;101272.71;105522;1257;99050;-78
2023/07/08 03:19:15;;;;;;;11.40;5.70;;;;;;;13.19;71.97;101276.27;105416;1270;97866;-78
2023/07/08 03:22:02;;;;;;;7.00;5.70;;;;;;;13.23;72.20;101279.35;105317;1262;95941;-77
2023/07/08 03:24:48;;;;;;;9.60;6.30;;;;;;;13.29;72.19;101280.93;105465;1257;96040;-77
2023/07/08 03:27:37;;;;;;;6.80;5.80;;;;;;;13.37;72.25;101280.39;105414;1261;99926;-77
2023/07/08 03:30:23;;;;;;;7.40;6.20;;;;;;;13.47;72.53;101280.30;105557;1263;99879;-78
2023/07/08 03:33:11;;;;;;;8.20;6.20;;;;;;;13.54;72.48;101281.67;106247;1262;98975;-77
2023/07/08 03:35:58;;;;;;;8.70;6.40;;;;;;;13.60;72.39;101280.87;105287;1262;97196;-78
2023/07/08 03:38:44;;;;;;;7.70;6.60;;;;;;;13.65;72.49;101284.63;105404;1264;95960;-78
2023/07/08 03:41:29;;;;;;;8.80;5.90;;;;;;;13.69;72.40;101283.74;105360;1257;98573;-78
2023/07/08 03:44:18;;;;;;;9.00;6.00;;;;;;;13.76;72.36;101285.52;105508;1262;100334;-78
2023/07/08 03:47:04;;;;;;;7.60;5.90;;;;;;;13.83;72.20;101285.05;105534;1257;98603;-78
2023/07/08 03:49:49;;;;;;;12.90;8.20;;;;;;;13.92;72.36;101283.70;105412;1262;95903;-77
2023/07/08 03:52:35;;;;;;;9.30;7.50;;;;;;;14.02;72.53;101278.50;105762;1259;95886;-78
2023/07/08 03:55:22;;;;;;;14.20;8.60;;;;;;;14.11;72.62;101277.02;105835;1257;99693;-78
2023/07/08 03:58:08;;;;;;;9.80;8.00;;;;;;;14.18;72.76;101278.11;105774;1257;100370;-78
2023/07/08 04:00:55;;;;;;;8.90;6.70;;;;;;;14.26;73.13;101277.64;105696;1256;97707;-77
2023/07/08 04:03:40;;;;;;;9.20;6.80;;;;;;;14.34;73.08;101277.01;105787;1261;95823;-78
2023/07/08 04:06:28;;;;;;;9.30;6.60;;;;;;;14.39;73.25;101277.67;105781;1256;96381;-77
2023/07/08 04:09:14;;;;;;;8.00;5.40;;;;;;;14.44;73.30;101272.52;105869;1258;99996;-78
2023/07/08 04:11:59;;;;;;;8.10;6.20;;;;;;;14.48;73.13;101273.29;105884;1257;99166;-78
2023/07/08 04:14:45;;;;;;;7.00;6.10;;;;;;;14.53;73.29;101274.30;105855;1253;99023;-77
2023/07/08 04:17:30;;;;;;;8.50;6.80;;;;;;;14.61;73.61;101269.27;105857;1257;95973;-79
2023/07/08 04:20:19;;;;;;;6.90;6.00;;;;;;;14.72;73.90;101266.13;106039;1257;96971;-78
2023/07/08 04:23:04;;;;;;;8.70;5.80;;;;;;;14.82;74.26;101267.61;106336;1257;99679;-79
2023/07/08 04:25:55;;;;;;;10.60;6.10;;;;;;;14.92;74.43;101265.80;106524;1254;101276;-79
2023/07/08 04:28:50;;;;;;;6.90;6.10;;;;;;;15.01;74.33;101267.64;106646;1253;98471;-80
2023/07/08 04:31:41;;;;;;;7.80;6.70;;;;;;;15.12;74.20;101265.53;107461;1256;95874;-80
2023/07/08 04:34:29;;;;;;;9.60;7.30;;;;;;;15.23;74.12;101267.27;106487;1253;96630;-78
2023/07/08 04:37:15;;;;;;;10.80;7.00;;;;;;;15.37;74.17;101268.60;105987;1257;98626;-78
2023/07/08 04:40:00;;;;;;;10.80;8.50;;;;;;;15.50;74.29;101264.05;105967;1255;100364;-78
2023/07/08 04:42:47;;;;;;;12.80;9.70;;;;;;;15.62;74.20;101263.32;105708;1257;98271;-78
2023/07/08 04:45:37;;;;;;;17.10;10.70;;;;;;;15.77;74.04;101260.73;106128;1257;95926;-78
2023/07/08 04:48:24;;;;;;;10.70;8.70;;;;;;;15.90;74.28;101258.69;105875;1256;97093;-79
2023/07/08 04:51:10;;;;;;;12.60;10.00;;;;;;;16.03;74.04;101260.04;106245;1257;99863;-79
2023/07/08 04:53:56;;;;;;;13.40;10.50;;;;;;;16.17;74.03;101258.14;105925;1257;100554;-78
2023/07/08 04:56:48;;;;;;;12.80;9.90;;;;;;;16.32;73.80;101261.27;105947;1254;98942;-79
2023/07/08 04:59:34;;;;;;;14.80;10.00;;;;;;;16.46;73.56;101259.52;106420;1257;95920;-79
2023/07/08 05:02:20;;;;;;;12.30;9.50;;;;;;;16.59;73.22;101258.02;105980;1257;96017;-80
2023/07/08 05:05:05;;;;;;;16.30;8.80;;;;;;;16.73;72.98;101261.88;106631;1256;98511;-77
2023/07/08 05:07:51;;;;;;;13.70;9.90;;;;;;;16.87;72.67;101265.06;105952;1266;99746;-78
2023/07/08 05:10:37;;;;;;;16.10;10.80;;;;;;;17.02;72.66;101262.15;105864;1254;97744;-78
2023/07/08 05:13:22;;;;;;;12.50;9.90;;;;;;;17.16;72.56;101259.23;106060;1256;95813;-79
2023/07/08 05:16:07;;;;;;;13.30;9.20;;;;;;;17.30;72.54;101257.05;105943;1258;95872;-78
2023/07/08 05:18:53;;;;;;;13.60;9.00;;;;;;;17.44;72.46;101261.53;106027;1256;98629;-78
2023/07/08 05:21:38;;;;;;;12.70;8.80;;;;;;;17.58;72.34;101260.33;106118;1251;100368;-79
2023/07/08 05:24:24;;;;;;;13.10;10.30;;;;;;;17.72;71.93;101261.75;105977;1254;99031;-79
2023/07/08 05:27:10;;;;;;;18.90;9.20;;;;;;;17.85;71.91;101266.27;106822;1258;95947;-79
2023/07/08 05:29:55;;;;;;;14.10;9.40;;;;;;;17.98;71.65;101258.80;106946;1257;95873;-80
2023/07/08 05:32:41;;;;;;;10.60;8.00;;;;;;;18.10;71.20;101256.30;106674;1256;100416;-80
2023/07/08 05:35:26;;;;;;;13.90;8.80;;;;;;;18.22;70.95;101255.78;105859;1257;99117;-78
2023/07/08 05:38:12;;;;;;;13.00;8.10;;;;;;;18.35;71.02;101250.75;106170;1257;97700;-78
2023/07/08 05:40:58;;;;;;;15.90;9.50;;;;;;;18.49;70.78;101249.36;106129;1254;95984;-78
2023/07/08 05:43:44;;;;;;;15.10;7.70;;;;;;;18.61;70.08;101249.26;106157;1257;95889;-79
2023/07/08 05:46:29;;;;;;;11.50;8.00;;;;;;;18.74;69.60;101244.69;106310;1254;99943;-79
2023/07/08 05:49:15;;;;;;;8.90;7.20;;;;;;;18.90;69.93;101244.55;106307;1254;99150;-77
2023/07/08 05:52:05;;;;;;;13.50;8.30;;;;;;;19.06;69.63;101240.45;106155;1254;99290;-78
2023/07/08 05:54:51;;;;;;;10.30;7.40;;;;;;;19.22;68.69;101238.76;107299;1254;95826;-78
2023/07/08 05:57:36;;;;;;;15.50;7.60;;;;;;;19.36;67.34;101237.44;106232;1254;95944;-78
2023/07/08 06:00:21;;;;;;;12.00;6.90;;;;;;;19.49;66.64;101232.71;106270;1257;99925;-79
2023/07/08 06:03:07;;;;;;;10.40;7.00;;;;;;;19.63;66.91;101233.70;106263;1257;99211;-78
2023/07/08 06:05:53;;;;;;;10.50;5.40;;;;;;;19.78;65.74;101232.35;106226;1251;98550;-79
2023/07/08 06:08:39;;;;;;;8.80;5.40;;;;;;;19.92;65.04;101236.43;106364;1259;96429;-79
2023/07/08 06:11:24;;;;;;;8.80;5.50;;;;;;;20.06;63.90;101237.48;106354;1254;96374;-79
2023/07/08 06:14:10;;;;;;;12.30;5.60;;;;;;;20.20;62.89;101241.67;106299;1256;100029;-78
2023/07/08 06:16:58;;;;;;;7.00;4.90;;;;;;;20.34;63.15;101243.41;106141;1255;99073;-78
2023/07/08 06:19:44;;;;;;;8.00;4.80;;;;;;;20.49;62.03;101242.74;106266;1253;97691;-79
2023/07/08 06:22:29;;;;;;;7.70;5.20;;;;;;;20.62;61.94;101241.09;106228;1254;95765;-79
2023/07/08 06:25:15;;;;;;;6.30;4.30;;;;;;;20.76;62.44;101239.02;106224;1257;95793;-79
2023/07/08 06:28:00;;;;;;;6.80;4.20;;;;;;;20.92;61.52;101238.98;106181;1251;99626;-78
2023/07/08 06:30:47;;;;;;;7.60;4.50;;;;;;;21.04;60.75;101235.89;106270;1258;99081;-78
2023/07/08 06:33:32;;;;;;;5.40;4.00;;;;;;;21.17;60.76;101234.33;106335;1257;98267;-78
2023/07/08 06:36:18;;;;;;;6.40;4.10;;;;;;;21.29;59.60;101234.64;106197;1251;97865;-79
2023/07/08 06:39:06;;;;;;;11.60;5.00;;;;;;;21.41;59.83;101230.56;106245;1257;96524;-78
2023/07/08 06:41:52;;;;;;;6.70;4.60;;;;;;;21.54;59.16;101228.90;106223;1254;100003;-79
2023/07/08 06:44:43;;;;;;;5.60;4.50;;;;;;;21.67;59.67;101228.83;106099;1251;100341;-78
2023/07/08 06:47:28;;;;;;;7.70;5.10;;;;;;;21.80;58.99;101229.53;106350;1256;97764;-78
2023/07/08 06:50:17;;;;;;;12.10;5.10;;;;;;;21.92;58.50;101229.98;106133;1254;96667;-78
2023/07/08 06:53:02;;;;;;;10.10;4.70;;;;;;;22.03;58.22;101222.54;106258;1257;97063;-79
2023/07/08 06:55:49;;;;;;;6.70;4.30;;;;;;;22.14;57.97;101220.97;106226;1257;101276;-78
2023/07/08 06:58:35;;;;;;;7.30;4.30;;;;;;;22.26;58.29;101222.21;106512;1251;100802;-78
2023/07/08 07:01:20;;;;;;;6.70;4.00;;;;;;;22.39;57.66;101219.09;106254;1251;97740;-79
2023/07/08 07:04:06;;;;;;;4.50;3.90;;;;;;;22.50;57.38;101219.48;106125;1258;96598;-79
2023/07/08 07:06:51;;;;;;;7.90;4.00;;;;;;;22.61;56.29;101218.64;106190;1251;97911;-78
2023/07/08 07:09:38;;;;;;;6.10;4.20;;;;;;;22.72;55.56;101220.66;106158;1254;100682;-79
2023/07/08 07:12:25;;;;;;;7.00;4.00;;;;;;;22.85;56.53;101221.27;106675;1254;99057;-77
2023/07/08 07:15:10;;;;;;;6.00;4.30;;;;;;;22.98;55.84;101221.36;106095;1268;97804;-79
2023/07/08 07:17:57;;;;;;;5.10;3.50;;;;;;;23.07;54.62;101217.70;106120;1254;96793;-80
2023/07/08 07:20:50;;;;;;;4.50;3.20;;;;;;;23.14;53.84;101220.57;106074;1254;97562;-79
2023/07/08 07:23:36;;;;;;;7.70;3.40;;;;;;;23.20;53.47;101217.16;105876;1257;101109;-77
2023/07/08 07:28:18;;;;;;;5.40;3.40;;;;;;;23.42;52.72;101211.48;102681;1294;636509;-79
2023/07/08 07:31:07;;;;;;;7.40;2.80;;;;;;;23.50;51.51;101210.64;105296;1268;96001;-78
2023/07/08 07:33:52;;;;;;;6.50;3.70;;;;;;;23.61;51.14;101208.13;106021;1254;96002;-78
2023/07/08 07:36:38;;;;;;;4.30;3.40;;;;;;;23.73;51.51;101213.13;106078;1259;97302;-79
2023/07/08 07:39:23;;;;;;;8.50;3.40;;;;;;;23.84;50.36;101216.08;106081;1254;99090;-79
2023/07/08 07:42:10;;;;;;;6.20;3.10;;;;;;;23.92;49.15;101213.91;105818;1255;119687;-79
2023/07/08 07:44:56;;;;;;;4.30;2.90;;;;;;;24.01;49.06;101208.73;106041;1256;97031;-79
2023/07/08 07:47:41;;;;;;;7.20;3.50;;;;;;;24.10;49.12;101212.45;106155;1256;96481;-78
2023/07/08 07:50:27;;;;;;;6.60;3.00;;;;;;;24.20;48.89;101210.35;106237;1251;97247;-78
2023/07/08 07:53:14;;;;;;;5.00;3.20;;;;;;;24.29;48.61;101212.29;106141;1251;99101;-78
2023/07/08 07:56:01;;;;;;;3.40;2.80;;;;;;;24.34;47.91;101210.02;106097;1256;97698;-78
2023/07/08 07:58:46;;;;;;;7.50;3.30;;;;;;;24.42;48.00;101211.17;106187;1251;95835;-77
2023/07/08 08:01:31;;;;;;;4.20;2.60;;;;;;;24.50;47.80;101213.05;105752;1256;96197;-78
2023/07/08 08:04:17;;;;;;;4.90;2.70;;;;;;;24.59;46.65;101208.56;106153;1251;99288;-79
2023/07/08 08:07:03;;;;;;;3.70;2.80;;;;;;;24.66;45.80;101200.70;106195;1256;99048;-78
2023/07/08 08:09:49;;;;;;;4.20;2.70;;;;;;;24.75;46.26;101206.48;106243;1255;97718;-77
2023/07/08 08:12:34;;;;;;;4.10;2.60;;;;;;;24.84;45.56;101209.45;106315;1256;95789;-79
2023/07/08 08:15:22;;;;;;;6.20;2.60;;;;;;;24.93;44.31;101211.19;106186;1256;95862;-79
2023/07/08 08:18:07;;;;;;;2.80;2.00;;;;;;;24.99;43.85;101209.70;106197;1254;98608;-78
2023/07/08 08:20:53;;;;;;;3.80;2.60;;;;;;;25.04;43.24;101210.97;106057;1266;99045;-78
2023/07/08 08:23:38;;;;;;;3.50;2.70;;;;;;;25.07;43.00;101210.11;105989;1253;99046;-79
2023/07/08 08:26:24;;;;;;;3.10;2.20;;;;;;;25.12;42.81;101209.74;106040;1261;95957;-78
2023/07/08 08:29:09;;;;;;;4.90;2.40;;;;;;;25.18;41.86;101213.94;106018;1251;95876;-79
2023/07/08 08:31:55;;;;;;;6.40;2.00;;;;;;;25.24;41.43;101209.63;106175;1254;99833;-77
2023/07/08 08:34:42;;;;;;;4.40;2.30;;;;;;;25.32;41.41;101208.94;106050;1254;100517;-78
2023/07/08 08:37:28;;;;;;;2.70;1.50;;;;;;;25.40;41.76;101210.07;106141;1251;97699;-79
2023/07/08 08:40:17;;;;;;;2.60;1.40;;;;;;;25.47;41.45;101209.14;106054;1251;96376;-78
2023/07/08 08:43:06;;;;;;;3.70;1.80;;;;;;;25.55;41.58;101209.43;106009;1251;95907;-77
2023/07/08 08:46:11;;;;;;;2.50;2.10;;;;;;;25.58;41.28;101211.52;106002;1256;98620;-78
2023/07/08 08:49:14;;;;;;;4.00;2.20;;;;;;;25.48;40.60;101209.13;105908;1255;99070;-78
2023/07/08 08:51:59;;;;;;;2.70;2.00;;;;;;;25.46;40.55;101205.08;106084;1251;97773;-79
2023/07/08 08:54:45;;;;;;;3.00;2.10;;;;;;;25.51;40.32;101201.12;105639;1255;95822;-77
2023/07/08 08:57:41;;;;;;;2.10;1.90;;;;;;;25.57;40.58;101206.46;105575;1251;95969;-77
2023/07/08 09:00:46;;;;;;;2.60;2.00;;;;;;;25.60;40.54;101213.34;105613;1256;98791;-76
2023/07/08 09:03:31;;;;;;;3.90;2.00;;;;;;;25.66;39.88;101210.01;105849;1251;99073;-79
2023/07/08 09:06:24;;;;;;;3.50;2.00;;;;;;;25.74;40.02;101214.52;105946;1256;99146;-79
2023/07/08 09:09:17;;;;;;;4.20;2.40;;;;;;;25.81;40.07;101217.42;106455;1251;95880;-80
2023/07/08 09:12:08;;;;;;;3.10;1.70;;;;;;;25.89;39.53;101215.02;106561;1260;97020;-79
2023/07/08 09:14:53;;;;;;;;;;;;;;;25.94;39.73;101216.34;106437;1256;98623;-79
2023/07/08 09:17:40;;;;;;;3.00;1.80;;;;;;;25.88;39.75;101219.91;105932;1251;99666;-79
2023/07/08 09:20:28;;;;;;;3.00;1.90;;;;;;;25.89;39.47;101214.86;105843;1256;98553;-78
2023/07/08 09:23:23;;;;;;;2.20;2.00;;;;;;;25.94;38.99;101211.24;106158;1265;96084;-79
2023/07/08 09:26:16;;;;;;;2.20;2.00;;;;;;;26.00;39.06;101213.82;106089;1251;95892;-79
2023/07/08 09:29:08;;;;;;;3.40;2.00;;;;;;;26.11;38.78;101211.98;106072;1256;100166;-79
2023/07/08 09:31:54;;;;;;;2.50;2.10;;;;;;;26.18;38.55;101205.63;106161;1255;109068;-80
2023/07/08 09:34:55;;;;;;;4.30;2.30;;;;;;;26.26;38.67;101195.63;106150;1256;97716;-79
2023/07/08 09:37:46;;;;;;;2.50;2.20;;;;;;;26.34;38.36;101197.27;106232;1256;95944;-80
2023/07/08 09:40:33;;;;;;;3.40;1.80;;;;;;;26.40;37.97;101198.36;106390;1251;95864;-78
2023/07/08 09:43:25;;;;;;;4.40;2.30;;;;;;;26.47;37.83;101197.48;106143;1257;99315;-79
2023/07/08 09:46:12;;;;;;;2.90;2.10;;;;;;;26.44;37.52;101194.17;106292;1256;99247;-79
2023/07/08 09:48:58;;;;;;;3.80;1.90;;;;;;;26.45;37.57;101193.30;106178;1251;97734;-80
2023/07/08 09:51:45;;;;;;;2.90;2.30;;;;;;;26.51;37.08;101190.25;106330;1256;95986;-78
2023/07/08 09:54:32;;;;;;;5.80;2.00;;;;;;;26.57;37.55;101191.78;106277;1257;95871;-79
2023/07/08 09:57:24;;;;;;;2.50;2.20;;;;;;;26.61;37.16;101189.19;106124;1256;98612;-78
2023/07/08 10:00:15;;;;;;;5.30;2.00;;;;;;;26.65;37.54;101186.01;105520;1256;100547;-77
2023/07/08 10:03:25;;;;;;;2.30;1.90;;;;;;;26.68;37.48;101185.94;105564;1251;97712;-78
2023/07/08 10:06:26;;;;;;;3.40;2.00;;;;;;;26.58;37.63;101190.90;106282;1256;96258;-79
2023/07/08 10:09:18;;;;;;;3.20;1.80;;;;;;;26.47;37.48;101187.80;106214;1259;96527;-79
2023/07/08 10:12:09;;;;;;;4.70;1.90;;;;;;;26.45;37.90;101186.42;106401;1256;98647;-78
2023/07/08 10:15:02;;;;;;;4.80;2.00;;;;;;;26.51;37.67;101186.64;106621;1257;99250;-78
2023/07/08 10:17:48;;;;;;;3.00;2.40;;;;;;;26.62;37.65;101181.45;106269;1259;98423;-79
2023/07/08 10:20:49;;;;;;;3.20;1.90;;;;;;;26.68;36.42;101178.68;105959;1257;96807;-79
2023/07/08 10:23:48;;;;;;;3.50;2.10;;;;;;;26.74;36.40;101171.71;106288;1257;95869;-79
2023/07/08 10:26:35;;;;;;;3.00;1.90;;;;;;;26.85;37.10;101170.35;106369;1251;100329;-79
2023/07/08 10:29:39;;;;;;;2.00;1.80;;;;;;;26.84;36.61;101172.11;106244;1256;100330;-80
2023/07/08 10:32:40;;;;;;;3.70;2.00;;;;;;;26.79;36.91;101174.06;106121;1257;97708;-79
2023/07/08 10:35:35;;;;;;;2.70;1.60;;;;;;;26.78;37.14;101175.11;106081;1254;95875;-79
2023/07/08 10:38:59;;;;;;;3.30;2.00;;;;;;;26.88;37.38;101172.77;106095;1256;96008;-79
2023/07/08 10:41:58;;;;;;;4.10;2.20;;;;;;;26.91;36.17;101163.79;106150;1256;98600;-79
2023/07/08 10:44:58;;;;;;;2.40;1.90;;;;;;;26.93;36.20;101167.30;106056;1251;99837;-79
2023/07/08 10:48:20;;;;;;;2.00;1.70;;;;;;;26.91;36.31;101159.17;106070;1256;98980;-79
2023/07/08 10:51:23;;;;;;;5.70;2.30;;;;;;;26.84;36.12;101154.19;106138;1255;97151;-79
2023/07/08 10:54:29;;;;;;;2.30;2.10;;;;;;;26.85;36.09;101150.95;105937;1260;96590;-79
2023/07/08 10:57:40;;;;;;;3.50;1.80;;;;;;;26.91;36.38;101146.19;106045;1263;98771;-80
2023/07/08 11:00:42;;;;;;;4.10;1.80;;;;;;;27.06;36.59;101143.27;105803;1256;99155;-79
2023/07/08 11:03:49;;;;;;;1.90;1.60;;;;;;;27.20;36.14;101140.38;106045;1257;97703;-79
2023/07/08 11:06:47;;;;;;;3.30;1.70;;;;;;;27.32;35.64;101142.30;105993;1256;95794;-79
2023/07/08 11:09:44;;;;;;;5.80;2.10;;;;;;;27.43;35.73;101131.35;106070;1259;95871;-78
2023/07/08 11:12:47;;;;;;;2.30;1.90;;;;;;;27.58;35.21;101127.23;106124;1257;99676;-79
2023/07/08 11:15:41;;;;;;;3.60;1.70;;;;;;;27.70;35.71;101128.30;105849;1260;100491;-79
2023/07/08 11:18:29;;;;;;;3.10;1.60;;;;;;;27.83;35.19;101131.06;106668;1255;97695;-79
2023/07/08 11:21:21;;;;;;;3.40;1.70;;;;;;;27.86;34.66;101135.17;106007;1260;96810;-78
2023/07/08 11:24:28;;;;;;;4.60;1.90;;;;;;;27.88;34.54;101129.48;105611;1257;97193;-78
2023/07/08 11:27:24;;;;;;;3.20;2.00;;;;;;;27.93;34.52;101127.45;106070;1257;98621;-79
2023/07/08 11:30:16;;;;;;;4.30;2.30;;;;;;;28.03;34.55;101124.56;105992;1259;99043;-78
2023/07/08 11:33:05;;;;;;;2.00;1.80;;;;;;;28.01;34.51;101121.08;105990;1267;97681;-78
2023/07/08 11:35:56;;;;;;;3.80;1.70;;;;;;;28.00;34.78;101121.36;105706;1257;97205;-78
2023/07/08 11:38:54;;;;;;;4.20;2.20;;;;;;;27.94;34.36;101125.36;105787;1251;96822;-79
2023/07/08 11:41:40;;;;;;;3.80;2.10;;;;;;;27.80;33.57;101121.77;105647;1255;98635;-79
2023/07/08 11:44:26;;;;;;;2.40;2.20;;;;;;;27.72;33.14;101120.84;106301;1257;99116;-77
2023/07/08 11:47:36;;;;;;;4.80;2.90;;;;;;;27.71;33.36;101123.94;105957;1257;98219;-78
2023/07/08 11:50:29;;;;;;;2.20;1.90;;;;;;;27.74;33.50;101118.24;105899;1257;95966;-79
2023/07/08 11:53:30;;;;;;;4.50;2.20;;;;;;;27.83;33.22;101115.37;106080;1251;96013;-78
2023/07/08 11:56:15;;;;;;;6.10;2.40;;;;;;;27.92;33.58;101119.07;105611;1257;98709;-79
2023/07/08 11:59:19;;;;;;;2.50;2.10;;;;;;;28.03;33.26;101120.71;105999;1253;99892;-79
2023/07/08 12:02:22;;;;;;;3.10;2.10;;;;;;;28.16;33.55;101116.52;106029;1255;97716;-79
2023/07/08 12:05:16;;;;;;;1.80;1.70;;;;;;;28.26;32.57;101112.40;106290;1257;95994;-79
2023/07/08 12:08:11;;;;;;;3.50;2.10;;;;;;;28.28;32.98;101106.30;107221;1251;95806;-78
2023/07/08 12:10:57;;;;;;;4.00;1.70;;;;;;;28.35;32.71;101102.44;106039;1260;98655;-79
2023/07/08 12:13:42;;;;;;;3.70;1.90;;;;;;;28.44;32.75;101100.63;105701;1255;99106;-77
2023/07/08 12:16:29;;;;;;;3.30;1.70;;;;;;;28.56;32.90;101101.54;105932;1257;98971;-78
2023/07/08 12:19:18;;;;;;;4.80;2.00;;;;;;;28.72;32.58;101101.41;106120;1256;97483;-79
2023/07/08 12:22:04;;;;;;;4.50;2.30;;;;;;;28.77;31.96;101096.84;105948;1257;98100;-79
2023/07/08 12:24:50;;;;;;;2.50;1.80;;;;;;;28.63;30.92;101095.13;106025;1256;100077;-77
2023/07/08 12:27:35;;;;;;;4.30;1.80;;;;;;;28.43;31.32;101092.70;106114;1257;99125;-78
2023/07/08 12:30:21;;;;;;;2.50;1.90;;;;;;;28.24;31.51;101092.09;105942;1257;98958;-79
2023/07/08 12:33:14;;;;;;;2.70;2.10;;;;;;;28.16;31.88;101088.73;105709;1257;96585;-77
2023/07/08 12:36:01;;;;;;;5.50;4.00;;;;;;;28.21;31.99;101084.13;106739;1256;96622;-78
2023/07/08 12:38:49;;;;;;;3.50;3.20;;;;;;;28.31;31.40;101079.55;105576;1256;100679;-78
2023/07/08 12:41:35;;;;;;;5.20;2.90;;;;;;;28.42;31.17;101080.80;105645;1256;100067;-78
2023/07/08 12:44:22;;;;;;;3.90;1.80;;;;;;;28.52;31.35;101076.65;105569;1264;97694;-78
2023/07/08 12:47:09;;;;;;;4.50;1.80;;;;;;;28.64;31.63;101075.42;105852;1251;96798;-78
2023/07/08 12:49:54;;;;;;;3.50;2.10;;;;;;;28.75;31.68;101077.06;105669;1257;97024;-77
2023/07/08 12:52:43;;;;;;;2.80;1.70;;;;;;;28.82;30.83;101069.04;105846;1256;100052;-78
2023/07/08 12:55:29;;;;;;;4.10;2.10;;;;;;;28.87;30.69;101070.29;105846;1251;99108;-79
2023/07/08 12:58:25;;;;;;;2.70;2.00;;;;;;;28.87;30.42;101069.13;105855;1265;98584;-79
2023/07/08 13:01:31;;;;;;;6.50;2.30;;;;;;;28.88;30.49;101071.81;105930;1258;96604;-79
2023/07/08 13:04:18;;;;;;;1.90;1.70;;;;;;;28.88;30.27;101067.23;105853;1251;97041;-79
2023/07/08 13:07:04;;;;;;;4.70;2.00;;;;;;;28.88;30.45;101062.16;105781;1260;101254;-79
2023/07/08 13:09:51;;;;;;;8.70;1.90;;;;;;;28.95;30.08;101051.68;105950;1251;99123;-78
2023/07/08 13:12:40;;;;;;;2.30;1.90;;;;;;;29.04;30.57;101050.08;105670;1251;97693;-79